Terminal Aerodrome Forecast
Issued by NWS

Home | Current Version | Previous Version | Graphics & Text | Print | Product List | Glossary On
Versions: 1 2 3 4 5 6 7 8 9 10 11 12 13 14 15 16 17 18 19 20 21 22 23 24 25 26 27 28 29 30 31
000
FTUS43 KLOT 162103 AAB
TAFORD
TAF AMD
KORD 162103Z 1621/1724 12012KT 6SM -SHRA VCTS SCT025 BKN040CB
      TEMPO 1622/1623 3SM TSRA BKN025CB
     FM170000 15008KT P6SM FEW025 BKN050
     FM170400 18008KT P6SM SCT030 OVC100 PROB30 1708/1712 2SM TSRA
      BKN030CB
     FM171300 21012G18KT P6SM SCT020 OVC100
     FM171800 25015G24KT P6SM SCT040 BKN250=

USA.gov is the U.S. government's official web portal to all federal, state and local government web resources and services.